Time;durP1;ratioP1;P1;durP2;ratioP2;P2;SDS_P1;SDS_P2;PMS_P1;PMS_P2;Temp;Humidity;BMP_temperature;BMP_pressure;BME280_temperature;BME280_humidity;BME280_pressure;Samples;Min_cycle;Max_cycle;Signal;HPM_P1;HPM_P2
2022/08/25 00:00:10;;;;;;;3.20;3.00;;;23.90;46.60;;;;;;20528;6854;311095;-88
2022/08/25 00:27:07;;;;;;;2.80;2.70;;;22.70;47.60;;;;;;21190;6571;89397;-86
2022/08/25 00:29:33;;;;;;;3.43;3.23;;;22.60;47.90;;;;;;20506;6862;281607;-87
2022/08/25 00:31:59;;;;;;;2.97;2.80;;;23.10;48.30;;;;;;20701;6862;117369;-87
2022/08/25 00:34:25;;;;;;;3.40;3.20;;;23.10;48.30;;;;;;20488;6858;328983;-87
2022/08/25 00:36:50;;;;;;;3.50;2.97;;;23.30;48.30;;;;;;20500;6856;299858;-87
2022/08/25 00:39:16;;;;;;;3.13;2.93;;;23.70;48.00;;;;;;20729;6856;117806;-87
2022/08/25 00:41:43;;;;;;;3.30;3.20;;;23.70;47.70;;;;;;20735;6856;116755;-87
2022/08/25 00:44:09;;;;;;;3.27;3.07;;;23.30;48.10;;;;;;20700;6856;117677;-86
2022/08/25 00:46:41;;;;;;;3.10;3.00;;;23.20;48.00;;;;;;20727;6856;117291;-86
2022/08/25 00:49:10;;;;;;;2.97;2.87;;;23.10;48.30;;;;;;20733;6856;117494;-88
2022/08/25 00:51:38;;;;;;;3.13;3.00;;;22.90;48.40;;;;;;20696;6856;117261;-88
2022/08/25 00:54:04;;;;;;;3.33;3.12;;;22.80;48.60;;;;;;20487;6856;278050;-88
2022/08/25 00:56:30;;;;;;;4.10;3.70;;;23.10;49.00;;;;;;20510;6856;278845;-88
2022/08/25 00:58:55;;;;;;;3.27;3.10;;;23.50;48.70;;;;;;20727;6856;117691;-88
2022/08/25 01:01:20;;;;;;;3.17;3.07;;;23.40;48.20;;;;;;20726;6856;117869;-88
2022/08/25 01:03:46;;;;;;;3.30;3.20;;;23.20;48.40;;;;;;20722;6856;117753;-88
2022/08/25 01:06:12;;;;;;;3.30;3.07;;;23.00;48.70;;;;;;20711;6852;119433;-87
2022/08/25 01:08:37;;;;;;;3.30;3.00;;;22.80;48.90;;;;;;20721;6859;119362;-87
2022/08/25 01:11:03;;;;;;;3.90;3.60;;;22.70;49.10;;;;;;20502;6859;290556;-88
2022/08/25 01:13:28;;;;;;;3.53;3.35;;;22.90;49.50;;;;;;20512;6852;338722;-88
2022/08/25 01:15:54;;;;;;;3.50;3.30;;;23.30;49.00;;;;;;20721;6852;117393;-88
2022/08/25 01:18:19;;;;;;;3.70;3.50;;;23.20;48.70;;;;;;20517;6852;310118;-87
2022/08/25 01:20:48;;;;;;;3.50;3.30;;;23.40;48.80;;;;;;20747;6852;120549;-88
2022/08/25 01:23:15;;;;;;;3.50;3.30;;;23.30;48.70;;;;;;20531;6852;277949;-88
2022/08/25 01:50:20;;;;;;;3.50;3.30;;;22.00;49.70;;;;;;21076;6514;89911;-87
2022/08/25 01:53:06;;;;;;;3.43;3.23;;;21.90;50.00;;;;;;21028;6791;66810;-87
2022/08/25 01:55:54;;;;;;;4.17;3.40;;;21.90;50.20;;;;;;20966;6739;116374;-87
2022/08/25 02:12:08;;;;;;;3.60;3.50;;;23.80;48.40;;;;;;20992;6545;66949;-87
2022/08/25 02:14:35;;;;;;;3.10;3.00;;;23.20;48.90;;;;;;20835;6821;117639;-87
2022/08/25 02:17:00;;;;;;;3.90;3.57;;;23.20;48.90;;;;;;20690;6833;117748;-87
2022/08/25 02:19:26;;;;;;;4.40;4.10;;;22.90;49.20;;;;;;20460;6876;339692;-87
2022/08/25 02:21:51;;;;;;;4.70;4.27;;;23.00;49.40;;;;;;20632;6889;120068;-87
2022/08/25 02:24:18;;;;;;;4.20;3.90;;;22.60;49.60;;;;;;20616;6889;117997;-87
2022/08/25 02:26:43;;;;;;;4.53;4.28;;;22.60;49.60;;;;;;20423;6887;339745;-87
2022/08/25 02:29:09;;;;;;;5.10;4.80;;;22.80;50.00;;;;;;20465;6872;309760;-87
2022/08/25 02:31:35;;;;;;;4.20;4.00;;;22.90;49.50;;;;;;20686;6872;120374;-87
2022/08/25 02:34:01;;;;;;;4.50;4.20;;;22.90;49.50;;;;;;20468;6872;339369;-87
2022/08/25 02:36:26;;;;;;;4.82;4.53;;;23.00;49.70;;;;;;20443;6872;280510;-86
2022/08/25 02:38:53;;;;;;;4.40;4.20;;;23.20;49.40;;;;;;20633;6887;119568;-87
2022/08/25 02:41:19;;;;;;;4.50;4.22;;;23.00;49.30;;;;;;20427;6884;311196;-87
2022/08/25 02:43:44;;;;;;;4.60;4.30;;;23.00;49.50;;;;;;20588;6898;117930;-87
2022/08/25 02:46:10;;;;;;;4.72;4.43;;;22.80;49.50;;;;;;20353;6898;280085;-87
2022/08/25 02:48:36;;;;;;;4.30;4.10;;;22.90;49.70;;;;;;20392;6898;313520;-87
2022/08/25 02:51:01;;;;;;;4.53;4.32;;;23.10;49.50;;;;;;20383;6898;309788;-87
2022/08/25 02:53:27;;;;;;;4.50;4.22;;;23.50;48.90;;;;;;20380;6898;310592;-87
2022/08/25 02:55:53;;;;;;;3.50;3.40;;;23.40;48.80;;;;;;20606;6890;117690;-87
2022/08/25 02:58:18;;;;;;;4.20;4.00;;;23.20;48.90;;;;;;20375;6890;327608;-87
2022/08/25 03:00:44;;;;;;;4.77;4.40;;;23.20;49.20;;;;;;20620;6890;118109;-87
2022/08/25 03:03:09;;;;;;;3.73;3.63;;;23.00;49.20;;;;;;20621;6890;119553;-87
2022/08/25 03:05:35;;;;;;;4.62;4.32;;;22.70;49.50;;;;;;20395;6890;312498;-88
2022/08/25 03:08:00;;;;;;;4.50;4.30;;;22.80;49.90;;;;;;20410;6890;280851;-87
2022/08/25 03:10:26;;;;;;;4.57;4.30;;;23.00;49.60;;;;;;20400;6890;298513;-87
2022/08/25 03:12:52;;;;;;;4.50;4.30;;;23.20;49.40;;;;;;20416;6890;310323;-87
2022/08/25 03:15:17;;;;;;;4.67;4.37;;;23.30;49.20;;;;;;20634;6889;117668;-87
2022/08/25 03:17:43;;;;;;;4.70;4.40;;;23.00;49.30;;;;;;20422;6889;309821;-87
2022/08/25 03:20:08;;;;;;;4.03;3.83;;;22.90;49.70;;;;;;20608;6889;117815;-87
2022/08/25 03:22:35;;;;;;;4.62;4.43;;;22.70;49.80;;;;;;20421;6887;311367;-87
2022/08/25 03:27:48;;;;;;;4.20;4.00;;;23.00;49.70;;;;;;20633;6888;117843;-90
2022/08/25 03:30:14;;;;;;;4.20;3.70;;;22.50;50.10;;;;;;20606;6888;117628;-87
2022/08/25 03:32:39;;;;;;;4.27;3.97;;;22.50;50.10;;;;;;20626;6888;120714;-87
2022/08/25 03:35:05;;;;;;;3.90;3.70;;;22.20;50.40;;;;;;20632;6888;116609;-87
2022/08/25 03:37:30;;;;;;;4.60;4.30;;;22.00;50.70;;;;;;20419;6888;280132;-87
2022/08/25 03:39:56;;;;;;;4.70;4.40;;;22.20;50.80;;;;;;20418;6888;340537;-87
2022/08/25 03:42:21;;;;;;;4.60;4.33;;;22.50;50.20;;;;;;20403;6888;280522;-88
2022/08/25 03:44:48;;;;;;;4.77;4.53;;;22.70;50.00;;;;;;20630;6888;118145;-87
2022/08/25 03:47:12;;;;;;;4.20;4.00;;;22.50;50.00;;;;;;20423;6888;310283;-87
2022/08/25 03:49:38;;;;;;;4.40;4.17;;;22.60;50.40;;;;;;20628;6888;120851;-87
2022/08/25 03:52:03;;;;;;;4.27;3.93;;;22.40;50.30;;;;;;20633;6888;117524;-88
2022/08/25 03:54:29;;;;;;;4.30;4.10;;;22.10;50.70;;;;;;20401;6888;282033;-87
2022/08/25 03:56:55;;;;;;;4.77;4.57;;;22.50;50.80;;;;;;20421;6888;304695;-87
2022/08/25 03:59:21;;;;;;;4.80;4.57;;;22.50;50.50;;;;;;20422;6889;280906;-87
2022/08/25 04:01:49;;;;;;;4.10;3.90;;;22.40;50.20;;;;;;20632;6889;118001;-87
2022/08/25 04:04:14;;;;;;;4.50;4.20;;;22.40;50.20;;;;;;20398;6889;310274;-87
2022/08/25 04:06:40;;;;;;;4.50;4.30;;;22.40;50.50;;;;;;20421;6889;293452;-87
2022/08/25 04:09:05;;;;;;;4.00;3.70;;;22.60;50.30;;;;;;20632;6889;118057;-87
2022/08/25 04:11:31;;;;;;;4.28;4.00;;;22.40;50.40;;;;;;20423;6889;280135;-86
2022/08/25 04:13:57;;;;;;;4.43;4.20;;;22.40;50.80;;;;;;20422;6889;309702;-87
2022/08/25 04:16:23;;;;;;;4.90;4.60;;;22.50;50.20;;;;;;20391;6889;313310;-87
2022/08/25 04:18:48;;;;;;;4.83;4.60;;;22.60;50.00;;;;;;20417;6889;299538;-87
2022/08/25 04:21:15;;;;;;;4.70;4.10;;;22.70;49.60;;;;;;20632;6889;116736;-87
2022/08/25 04:23:41;;;;;;;4.10;3.90;;;22.30;49.90;;;;;;20626;6889;118142;-89
2022/08/25 04:26:11;;;;;;;4.60;4.40;;;21.90;50.80;;;;;;20417;6889;340647;-87
2022/08/25 04:28:38;;;;;;;4.03;3.83;;;21.90;50.60;;;;;;20450;6890;118525;-86
2022/08/25 04:31:04;;;;;;;4.53;4.30;;;21.80;50.80;;;;;;20421;6889;339473;-86
2022/08/25 04:33:31;;;;;;;4.17;3.97;;;21.80;51.10;;;;;;20629;6886;116806;-89
2022/08/25 04:35:57;;;;;;;4.27;4.00;;;21.60;51.10;;;;;;20631;6888;117519;-87
2022/08/25 04:38:22;;;;;;;4.50;4.30;;;21.40;51.60;;;;;;20605;6888;120185;-87
2022/08/25 04:40:48;;;;;;;4.40;4.20;;;21.10;51.90;;;;;;20423;6888;302689;-87
2022/08/25 04:43:14;;;;;;;5.03;4.73;;;21.30;52.10;;;;;;20397;6888;279719;-87
2022/08/25 04:45:40;;;;;;;4.70;4.40;;;21.60;51.80;;;;;;20617;6888;117911;-86
2022/08/25 04:48:07;;;;;;;4.95;4.70;;;21.50;51.60;;;;;;20418;6888;312682;-87
2022/08/25 04:50:33;;;;;;;4.70;4.40;;;21.40;51.80;;;;;;20630;6888;117645;-87
2022/08/25 04:53:00;;;;;;;4.63;4.33;;;21.40;51.80;;;;;;20612;6888;117615;-87
2022/08/25 04:55:25;;;;;;;4.28;4.07;;;21.20;52.20;;;;;;20632;6888;117617;-86
2022/08/25 04:57:53;;;;;;;4.70;4.40;;;20.90;52.40;;;;;;20635;6888;118048;-87
2022/08/25 05:00:18;;;;;;;5.00;4.60;;;20.80;52.80;;;;;;20407;6888;301992;-88
2022/08/25 05:02:44;;;;;;;4.95;4.75;;;21.10;53.10;;;;;;20405;6888;310070;-88
2022/08/25 05:05:10;;;;;;;5.12;4.72;;;21.80;52.10;;;;;;20421;6888;309684;-88
2022/08/25 05:07:36;;;;;;;5.30;4.90;;;21.70;52.00;;;;;;20421;6888;309284;-87
2022/08/25 05:10:01;;;;;;;5.10;4.90;;;22.00;51.70;;;;;;20428;6888;326270;-88
2022/08/25 05:12:28;;;;;;;5.20;4.90;;;22.10;51.50;;;;;;20413;6889;280612;-87
2022/08/25 05:14:54;;;;;;;5.50;5.00;;;22.20;51.30;;;;;;20439;6889;309002;-87
2022/08/25 05:17:20;;;;;;;5.07;4.77;;;22.40;51.10;;;;;;20434;6889;280455;-87
2022/08/25 05:19:47;;;;;;;4.67;4.37;;;22.40;51.10;;;;;;20642;6889;117884;-87
2022/08/25 05:22:12;;;;;;;4.77;4.43;;;22.20;51.40;;;;;;20643;6889;118212;-87
2022/08/25 05:24:38;;;;;;;5.07;4.87;;;21.80;51.90;;;;;;20673;6889;119330;-87
2022/08/25 05:27:04;;;;;;;4.83;4.57;;;21.60;52.40;;;;;;20446;6889;309139;-87
2022/08/25 05:29:29;;;;;;;4.57;4.37;;;21.80;52.90;;;;;;20667;6889;117736;-87
2022/08/25 05:31:55;;;;;;;5.33;4.77;;;21.80;52.60;;;;;;20682;6889;116587;-87
2022/08/25 05:34:21;;;;;;;4.67;4.37;;;21.60;52.70;;;;;;20642;6890;118490;-87
2022/08/25 05:36:46;;;;;;;5.37;5.07;;;21.50;53.00;;;;;;20442;6890;311487;-87
2022/08/25 05:39:11;;;;;;;5.78;5.32;;;21.80;53.20;;;;;;20447;6890;310864;-87
2022/08/25 05:41:37;;;;;;;4.90;4.60;;;22.20;52.50;;;;;;20674;6890;116799;-87
2022/08/25 05:44:03;;;;;;;4.75;4.45;;;22.20;52.30;;;;;;20461;6890;280264;-90
2022/08/25 05:46:29;;;;;;;3.93;3.67;;;22.30;52.50;;;;;;20637;6888;118368;-87
2022/08/25 05:48:54;;;;;;;4.60;4.30;;;22.30;52.30;;;;;;20461;6889;309561;-88
2022/08/25 05:51:19;;;;;;;4.70;4.40;;;22.40;52.10;;;;;;20446;6889;335588;-87
2022/08/25 05:53:45;;;;;;;4.90;4.60;;;22.70;51.60;;;;;;20430;6889;284698;-87
2022/08/25 05:56:10;;;;;;;4.50;4.20;;;23.00;51.10;;;;;;20405;6890;283198;-87
2022/08/25 05:58:36;;;;;;;4.00;3.80;;;23.20;51.20;;;;;;20679;6890;68137;-87
2022/08/25 06:02:39;;;;;;;4.20;3.92;;;23.00;51.20;;;;;;20667;6890;116960;-87
2022/08/25 06:03:27;;;;;;;4.13;3.93;;;22.70;51.50;;;;;;20595;6890;117618;-87
2022/08/25 06:05:53;;;;;;;5.30;4.90;;;22.40;51.80;;;;;;20466;6888;278783;-87
2022/08/25 06:08:18;;;;;;;5.57;5.17;;;22.60;52.20;;;;;;20448;6888;331577;-87
2022/08/25 06:10:44;;;;;;;4.30;4.10;;;22.90;51.50;;;;;;20448;6888;309921;-87
2022/08/25 06:13:09;;;;;;;4.67;4.40;;;23.20;51.20;;;;;;20448;6888;293251;-88
2022/08/25 06:15:36;;;;;;;3.90;3.70;;;23.20;50.90;;;;;;20628;6888;117776;-88
2022/08/25 06:18:02;;;;;;;4.50;4.30;;;23.20;50.80;;;;;;20631;6888;117750;-87
2022/08/25 06:20:29;;;;;;;5.13;4.57;;;22.90;51.30;;;;;;20615;6888;117759;-87
2022/08/25 06:22:54;;;;;;;4.53;4.27;;;22.60;51.60;;;;;;20414;6889;280143;-88
2022/08/25 06:25:20;;;;;;;4.07;3.80;;;22.80;52.30;;;;;;20632;6889;117992;-87
2022/08/25 06:27:45;;;;;;;4.13;3.90;;;22.80;52.10;;;;;;20412;6889;281054;-88
2022/08/25 06:30:11;;;;;;;4.07;3.87;;;23.30;52.20;;;;;;20402;6889;280928;-87
2022/08/25 06:32:38;;;;;;;4.30;4.00;;;23.40;51.70;;;;;;20414;6889;280762;-87
2022/08/25 06:35:04;;;;;;;4.62;4.32;;;23.80;51.40;;;;;;20418;6889;309786;-87
2022/08/25 06:37:29;;;;;;;4.10;3.90;;;24.10;50.70;;;;;;20630;6889;117703;-87
2022/08/25 06:39:55;;;;;;;4.33;4.00;;;24.10;50.60;;;;;;20628;6890;117683;-87
2022/08/25 06:42:21;;;;;;;4.50;4.30;;;24.00;50.90;;;;;;20395;6890;310675;-88
2022/08/25 06:44:46;;;;;;;4.60;4.30;;;24.20;50.50;;;;;;20629;6890;117691;-87
2022/08/25 06:47:14;;;;;;;4.10;3.87;;;24.20;50.30;;;;;;20622;6890;117924;-87
2022/08/25 06:49:39;;;;;;;4.50;4.20;;;24.20;50.30;;;;;;20613;6890;117926;-87
2022/08/25 06:52:05;;;;;;;4.50;4.10;;;24.20;50.50;;;;;;20409;6890;311216;-87
2022/08/25 06:54:30;;;;;;;4.20;4.00;;;24.50;50.00;;;;;;20398;6890;309908;-87
2022/08/25 06:56:57;;;;;;;4.53;4.20;;;25.40;48.80;;;;;;20417;6888;292749;-87
2022/08/25 06:59:24;;;;;;;4.18;3.80;;;25.80;48.40;;;;;;20412;6889;342992;-87
2022/08/25 07:01:51;;;;;;;3.63;3.33;;;25.80;48.40;;;;;;20626;6889;116517;-87
2022/08/25 07:04:17;;;;;;;3.83;3.62;;;25.80;48.30;;;;;;20397;6889;281116;-88
2022/08/25 07:06:45;;;;;;;4.27;3.97;;;26.40;47.00;;;;;;20416;6889;306969;-87
2022/08/25 07:09:10;;;;;;;4.30;3.90;;;26.30;46.90;;;;;;20417;6890;281605;-87
2022/08/25 07:11:36;;;;;;;5.05;4.55;;;26.70;46.40;;;;;;20411;6890;313827;-88
2022/08/25 07:14:02;;;;;;;5.07;4.27;;;27.10;46.30;;;;;;20626;6890;118126;-88
2022/08/25 07:16:27;;;;;;;3.93;3.70;;;27.00;46.20;;;;;;20601;6890;119058;-88
2022/08/25 07:18:55;;;;;;;4.90;4.60;;;26.90;46.50;;;;;;20418;6890;311596;-87
2022/08/25 07:21:19;;;;;;;4.77;3.90;;;27.10;46.20;;;;;;20626;6890;118054;-87
2022/08/25 07:23:45;;;;;;;4.50;4.20;;;27.20;46.30;;;;;;20636;6890;118022;-87
2022/08/25 07:26:12;;;;;;;5.00;4.70;;;27.10;46.30;;;;;;20421;6890;313080;-88
2022/08/25 07:28:38;;;;;;;5.20;4.70;;;27.90;44.50;;;;;;20409;6890;310172;-87
2022/08/25 07:31:04;;;;;;;5.60;5.30;;;27.80;44.50;;;;;;20413;6890;310748;-88
2022/08/25 07:33:29;;;;;;;6.32;5.87;;;28.20;44.00;;;;;;20420;6888;310274;-87
2022/08/25 07:35:56;;;;;;;5.27;4.87;;;28.50;43.00;;;;;;20624;6889;118044;-88
2022/08/25 07:38:20;;;;;;;5.40;5.00;;;28.30;43.40;;;;;;20396;6890;313176;-88
2022/08/25 07:40:53;;;;;;;6.12;5.78;;;28.50;43.90;;;;;;20635;6889;120473;-88
2022/08/25 07:43:11;;;;;;;6.45;6.05;;;28.40;43.70;;;;;;20404;6889;319109;-88
2022/08/25 07:45:38;;;;;;;6.63;6.23;;;28.60;42.90;;;;;;20632;6889;117569;-88
2022/08/25 07:48:03;;;;;;;6.50;6.10;;;28.50;42.90;;;;;;20410;6889;310280;-88
2022/08/25 07:50:28;;;;;;;6.87;6.47;;;28.60;42.30;;;;;;20399;6889;283320;-88
2022/08/25 07:52:55;;;;;;;6.03;5.53;;;28.80;41.30;;;;;;20632;6889;119734;-88
2022/08/25 07:55:21;;;;;;;6.20;5.80;;;28.70;41.70;;;;;;20658;6665;118051;31
2022/08/25 07:57:58;;;;;;;6.40;6.00;;;28.50;42.30;;;;;;20194;6854;120411;-89
2022/08/25 08:00:33;;;;;;;6.80;6.20;;;28.30;42.90;;;;;;20649;6761;306216;-88
2022/08/25 08:03:08;;;;;;;6.80;6.30;;;28.60;42.20;;;;;;20672;6762;278651;-88
2022/08/25 08:05:44;;;;;;;6.03;5.73;;;28.90;41.60;;;;;;20864;6760;117363;-88
2022/08/25 08:08:19;;;;;;;6.07;5.60;;;28.90;41.80;;;;;;20803;6759;116793;-88
2022/08/25 08:10:55;;;;;;;7.77;7.17;;;29.10;41.40;;;;;;20636;6761;308335;-88
2022/08/25 08:13:31;;;;;;;5.97;5.67;;;29.10;41.40;;;;;;20828;6768;117875;-88
2022/08/25 08:16:11;;;;;;;5.83;5.53;;;29.10;41.50;;;;;;20494;6791;313094;-88
2022/08/25 08:18:46;;;;;;;6.17;5.87;;;29.30;41.60;;;;;;20727;6806;117614;-88
2022/08/25 08:21:23;;;;;;;6.60;6.10;;;29.40;41.50;;;;;;20632;6753;286720;-88
2022/08/25 08:24:00;;;;;;;6.10;5.70;;;29.60;40.60;;;;;;20585;6768;306736;-88
2022/08/25 08:26:35;;;;;;;6.12;5.82;;;30.10;40.40;;;;;;20462;6784;309438;-89
2022/08/25 08:29:11;;;;;;;6.00;5.70;;;30.40;39.10;;;;;;20875;6756;117458;-88
2022/08/25 08:31:47;;;;;;;5.73;5.33;;;30.30;39.70;;;;;;20725;6800;117779;-88
2022/08/25 08:34:22;;;;;;;6.40;6.00;;;30.20;40.00;;;;;;20672;6756;306308;-88
2022/08/25 08:37:00;;;;;;;5.83;5.43;;;30.20;39.40;;;;;;20758;6771;117102;-88
2022/08/25 08:39:35;;;;;;;5.47;5.17;;;30.20;39.30;;;;;;20831;6771;117112;-88
2022/08/25 08:45:24;;;;;;;;;;;;;;;;;;;;;
2022/08/25 08:48:15;;;;;;;6.73;6.33;;;30.00;39.70;;;;;;20976;6407;292538;-87
2022/08/25 08:51:09;;;;;;;6.32;5.82;;;30.00;39.70;;;;;;20846;6698;333366;-88
2022/08/25 08:53:55;;;;;;;6.10;5.70;;;30.50;39.90;;;;;;20996;6724;116940;-88
2022/08/25 08:56:30;;;;;;;6.18;5.75;;;30.50;39.40;;;;;;20631;6771;313147;-88
2022/08/25 08:59:11;;;;;;;6.53;6.03;;;31.00;38.70;;;;;;20793;6715;335387;-92
2022/08/25 09:01:57;;;;;;;6.70;6.10;;;31.00;38.70;;;;;;21005;6715;116764;-88
2022/08/25 09:04:34;;;;;;;6.82;6.12;;;30.90;38.80;;;;;;20788;6700;285817;-89
2022/08/25 09:07:10;;;;;;;6.20;5.80;;;31.00;38.40;;;;;;20676;6709;277490;-91
2022/08/25 09:09:46;;;;;;;6.17;5.67;;;31.30;38.50;;;;;;21009;6707;117354;-89
2022/08/25 09:12:24;;;;;;;6.37;5.80;;;31.20;38.50;;;;;;21006;6707;116860;-90
2022/08/25 09:15:10;;;;;;;6.40;5.93;;;30.90;38.80;;;;;;20791;6765;278029;-90
2022/08/25 09:18:14;;;;;;;6.30;5.85;;;31.50;39.20;;;;;;20594;6780;337566;-88
2022/08/25 09:21:07;;;;;;;5.77;5.47;;;31.40;38.10;;;;;;19801;7110;119083;-88
2022/08/25 09:23:59;;;;;;;6.60;6.20;;;31.40;38.30;;;;;;19664;7084;291231;-87
2022/08/25 09:26:35;;;;;;;6.30;5.93;;;31.60;38.10;;;;;;20190;6762;307121;-88
2022/08/25 09:29:13;;;;;;;5.80;5.50;;;31.90;37.70;;;;;;20623;6729;307073;-88
2022/08/25 09:31:48;;;;;;;5.83;5.47;;;32.10;37.20;;;;;;20972;6714;117389;-89
2022/08/25 09:34:24;;;;;;;7.37;6.77;;;32.00;37.00;;;;;;20739;6729;275675;-88
2022/08/25 09:36:59;;;;;;;5.83;5.53;;;32.00;36.90;;;;;;20498;6726;279402;-87
2022/08/25 09:39:44;;;;;;;6.33;5.33;;;32.20;36.50;;;;;;20888;6714;117242;-89
2022/08/25 09:42:12;;;;;;;6.10;5.70;;;32.10;36.90;;;;;;20978;6714;116957;-89
2022/08/25 09:44:47;;;;;;;5.67;4.93;;;32.00;37.10;;;;;;21008;6714;117579;-90
2022/08/25 09:47:24;;;;;;;5.73;5.43;;;31.80;37.40;;;;;;20858;6714;117266;-88
2022/08/25 09:50:00;;;;;;;5.97;5.57;;;31.70;37.70;;;;;;20869;6692;303975;-89
2022/08/25 09:52:38;;;;;;;6.03;5.53;;;32.10;36.90;;;;;;20796;6704;295804;-88
2022/08/25 09:55:17;;;;;;;5.67;5.37;;;32.90;35.80;;;;;;20780;6723;275437;-91
2022/08/25 09:57:57;;;;;;;5.30;5.00;;;32.90;35.60;;;;;;20673;6754;277739;-89
2022/08/25 10:00:32;;;;;;;5.40;5.10;;;33.10;35.10;;;;;;20670;6745;307889;-89
2022/08/25 10:03:12;;;;;;;5.70;5.30;;;33.30;35.60;;;;;;20674;6753;279042;-89
2022/08/25 10:05:53;;;;;;;5.22;4.90;;;33.30;34.90;;;;;;20605;6726;336230;-89
2022/08/25 10:08:35;;;;;;;5.27;4.97;;;33.40;34.60;;;;;;20754;6716;291256;-89
2022/08/25 10:11:14;;;;;;;5.33;4.80;;;33.50;33.80;;;;;;21002;6716;117036;-89
2022/08/25 10:13:50;;;;;;;5.13;4.83;;;33.30;34.10;;;;;;20998;6714;117365;-89
2022/08/25 10:16:26;;;;;;;4.83;4.53;;;33.00;34.40;;;;;;20692;6714;307767;-89
2022/08/25 10:19:21;;;;;;;4.57;4.37;;;33.00;35.00;;;;;;20734;6735;303845;-89
2022/08/25 10:22:10;;;;;;;4.97;4.73;;;33.30;34.40;;;;;;20976;6720;116993;-89
2022/08/25 10:24:45;;;;;;;4.93;4.63;;;33.20;34.40;;;;;;20654;6801;277725;-90
2022/08/25 10:27:41;;;;;;;4.10;3.90;;;33.20;34.00;;;;;;20837;6733;119674;-89
2022/08/25 10:30:16;;;;;;;3.90;3.70;;;33.00;34.00;;;;;;21024;6704;117302;-90
2022/08/25 10:33:08;;;;;;;4.20;3.90;;;32.70;34.50;;;;;;21040;6704;117472;-89
2022/08/25 10:36:03;;;;;;;4.00;3.80;;;32.50;34.60;;;;;;21009;6704;117240;-89
2022/08/25 10:38:42;;;;;;;4.07;3.87;;;32.70;33.10;;;;;;20772;6772;294447;-89
2022/08/25 10:41:38;;;;;;;4.00;3.80;;;32.70;33.10;;;;;;20794;6715;306034;-88
2022/08/25 10:48:05;;;;;;;3.93;3.73;;;32.70;33.60;;;;;;20888;6713;117211;-89
2022/08/25 10:50:44;;;;;;;3.50;3.40;;;32.70;33.50;;;;;;21032;6747;121799;-88
2022/08/25 10:53:27;;;;;;;3.80;3.50;;;32.70;33.40;;;;;;20747;6731;277846;-89
2022/08/25 10:56:03;;;;;;;3.80;3.60;;;32.80;32.30;;;;;;20933;6715;115949;-89
2022/08/25 10:59:06;;;;;;;4.23;3.77;;;32.70;32.40;;;;;;20942;6771;119272;-89
2022/08/25 11:01:53;;;;;;;3.50;3.40;;;32.40;32.90;;;;;;20619;6783;278517;-89
2022/08/25 11:04:36;;;;;;;3.47;3.27;;;32.70;33.10;;;;;;21008;6707;116908;-88
2022/08/25 11:07:25;;;;;;;3.83;3.57;;;32.80;32.70;;;;;;20667;6708;304232;-88
2022/08/25 11:10:08;;;;;;;3.60;3.30;;;33.00;33.00;;;;;;20847;6696;276775;-89
2022/08/25 11:12:46;;;;;;;3.80;3.53;;;33.30;32.00;;;;;;21010;6706;116900;-89
2022/08/25 11:15:29;;;;;;;3.70;3.50;;;33.30;32.10;;;;;;20717;6774;307513;-89
2022/08/25 11:18:07;;;;;;;3.60;3.50;;;33.40;32.40;;;;;;20868;6689;275000;-89
2022/08/25 11:21:00;;;;;;;5.87;3.23;;;33.90;32.20;;;;;;21026;6707;117672;-89
2022/08/25 11:23:36;;;;;;;3.63;3.43;;;33.80;32.10;;;;;;21070;6690;116797;-89
2022/08/25 11:26:11;;;;;;;3.77;3.57;;;33.80;32.10;;;;;;20933;6707;117177;-89
2022/08/25 11:29:10;;;;;;;4.00;3.60;;;33.70;32.10;;;;;;20969;6728;117199;-90
2022/08/25 11:31:51;;;;;;;3.20;3.10;;;33.70;32.10;;;;;;20792;6722;278809;-91
2022/08/25 11:34:28;;;;;;;3.80;3.60;;;33.90;31.20;;;;;;20803;6700;303673;-88
2022/08/25 11:37:07;;;;;;;3.42;3.12;;;34.30;30.70;;;;;;20625;6778;331807;-89
2022/08/25 11:40:15;;;;;;;3.30;3.20;;;34.30;30.70;;;;;;21010;6747;116832;-89
2022/08/25 11:43:01;;;;;;;3.20;3.00;;;33.90;31.10;;;;;;21059;6693;117555;-88
2022/08/25 11:45:50;;;;;;;3.00;2.87;;;33.70;31.40;;;;;;20918;6735;117893;-88
2022/08/25 11:48:45;;;;;;;3.10;3.00;;;33.60;31.30;;;;;;20953;6724;116789;-89
2022/08/25 11:51:31;;;;;;;3.40;3.30;;;33.50;31.90;;;;;;20810;6710;306258;-89
2022/08/25 11:54:26;;;;;;;3.57;3.37;;;33.70;32.20;;;;;;20728;6735;277751;-86
2022/08/25 11:57:03;;;;;;;3.70;3.40;;;34.00;30.90;;;;;;20661;6723;309782;-89
2022/08/25 11:59:48;;;;;;;3.50;3.30;;;34.10;30.50;;;;;;20853;6693;304935;-90
2022/08/25 12:02:53;;;;;;;;;;;;;;;;;;;;;
2022/08/25 12:05:20;;;;;;;3.40;3.20;;;34.10;30.90;;;;;;20743;6765;302590;-89
2022/08/25 12:10:50;;;;;;;3.93;3.63;;;34.30;30.90;;;;;;21024;6710;117204;-89
2022/08/25 12:13:29;;;;;;;3.30;3.20;;;34.30;30.90;;;;;;21005;6710;116834;-89
2022/08/25 12:16:05;;;;;;;3.40;3.10;;;34.00;31.10;;;;;;20644;6781;279248;-89
2022/08/25 12:18:41;;;;;;;3.00;2.90;;;34.10;30.40;;;;;;21026;6702;116966;-89
2022/08/25 12:21:22;;;;;;;3.50;3.30;;;34.00;30.80;;;;;;20735;6733;305828;-89
2022/08/25 12:24:01;;;;;;;3.10;3.00;;;34.10;30.20;;;;;;20805;6709;277925;-89
2022/08/25 12:26:47;;;;;;;3.27;3.07;;;34.30;30.30;;;;;;20697;6710;278148;-89
2022/08/25 12:29:26;;;;;;;3.00;2.90;;;34.40;30.00;;;;;;21058;6697;118737;-89
2022/08/25 12:32:19;;;;;;;3.07;2.83;;;34.20;30.20;;;;;;21064;6697;118775;-89
2022/08/25 12:35:09;;;;;;;3.20;3.00;;;33.70;30.70;;;;;;21002;6720;116401;-89
2022/08/25 12:38:01;;;;;;;3.50;3.27;;;33.10;31.90;;;;;;20740;6793;117411;-87
2022/08/25 12:40:42;;;;;;;3.73;3.27;;;33.20;31.90;;;;;;20991;6713;116848;-89
2022/08/25 12:43:18;;;;;;;3.00;2.90;;;33.10;32.00;;;;;;20971;6720;117193;-89
2022/08/25 12:45:54;;;;;;;3.03;2.93;;;33.00;31.70;;;;;;20933;6722;117066;-88
2022/08/25 12:48:30;;;;;;;3.20;3.10;;;32.80;31.90;;;;;;20917;6776;117891;-88
2022/08/25 12:51:11;;;;;;;3.07;2.87;;;32.50;32.20;;;;;;21035;6705;119476;-89
2022/08/25 12:53:50;;;;;;;3.00;2.85;;;32.30;32.70;;;;;;20821;6705;305585;-89
2022/08/25 12:56:35;;;;;;;3.75;3.45;;;32.50;32.30;;;;;;20650;6776;308184;-89
2022/08/25 12:59:15;;;;;;;3.20;3.00;;;32.70;32.80;;;;;;20735;6735;307988;-89
2022/08/25 13:02:10;;;;;;;3.00;2.90;;;33.00;31.90;;;;;;20975;6724;117010;-89
2022/08/25 13:05:20;;;;;;;3.47;3.33;;;33.00;32.50;;;;;;20823;6705;305673;-89
2022/08/25 13:08:28;;;;;;;3.78;3.20;;;33.00;32.40;;;;;;20744;6718;277630;-89
2022/08/25 13:11:10;;;;;;;3.73;3.37;;;33.30;31.80;;;;;;21009;6709;119197;-89
2022/08/25 13:14:16;;;;;;;3.30;3.20;;;33.10;31.70;;;;;;21023;6710;119192;-89
2022/08/25 13:16:51;;;;;;;3.22;3.12;;;32.80;32.60;;;;;;20598;6789;336968;-89
2022/08/25 13:19:27;;;;;;;3.50;3.30;;;32.90;32.70;;;;;;21020;6708;116940;-89
2022/08/25 13:22:09;;;;;;;3.20;2.93;;;32.90;32.50;;;;;;20737;6733;277285;-89
2022/08/25 13:24:44;;;;;;;3.07;2.87;;;33.00;31.10;;;;;;20808;6709;303524;-89
2022/08/25 13:27:21;;;;;;;3.23;3.03;;;33.20;31.30;;;;;;20647;6710;307149;-89
2022/08/25 13:29:57;;;;;;;3.13;2.93;;;33.40;30.60;;;;;;20846;6697;275938;-89
2022/08/25 13:32:33;;;;;;;3.27;3.07;;;33.40;30.60;;;;;;20795;6706;305932;-89
2022/08/25 13:35:15;;;;;;;3.20;3.10;;;33.40;31.20;;;;;;20820;6705;305192;-90
2022/08/25 13:37:52;;;;;;;3.00;2.90;;;33.30;31.10;;;;;;21038;6705;118028;-90
2022/08/25 13:40:26;;;;;;;3.07;2.97;;;33.00;31.30;;;;;;21071;6687;116840;-89
2022/08/25 13:43:02;;;;;;;3.00;2.87;;;32.60;32.10;;;;;;20973;6724;116995;-90
2022/08/25 13:45:38;;;;;;;3.43;3.23;;;32.40;32.90;;;;;;20745;6721;280541;-89
2022/08/25 13:48:14;;;;;;;3.37;3.10;;;32.40;32.80;;;;;;20796;6707;334099;-89
2022/08/25 13:50:50;;;;;;;3.22;3.03;;;32.80;32.50;;;;;;20781;6766;306685;-89
2022/08/25 13:53:26;;;;;;;2.80;2.70;;;32.80;32.40;;;;;;21059;6698;116896;-90
2022/08/25 13:56:01;;;;;;;4.10;2.97;;;32.70;32.30;;;;;;20982;6703;115822;-89
2022/08/25 13:58:37;;;;;;;3.03;2.90;;;32.50;32.30;;;;;;20977;6718;117390;-89
2022/08/25 14:01:16;;;;;;;4.77;2.90;;;32.30;32.40;;;;;;21001;6717;115977;-89
2022/08/25 14:03:51;;;;;;;2.90;2.80;;;32.10;32.50;;;;;;20656;6806;304890;-90
2022/08/25 14:06:27;;;;;;;2.57;2.47;;;32.30;32.30;;;;;;20782;6803;118038;-89
2022/08/25 14:09:02;;;;;;;3.30;3.10;;;32.40;32.80;;;;;;20714;6785;305414;-89
2022/08/25 14:11:48;;;;;;;3.03;2.83;;;32.60;31.90;;;;;;20744;6727;305639;-89
2022/08/25 14:14:26;;;;;;;3.00;2.80;;;32.90;31.70;;;;;;20716;6732;306193;-89
2022/08/25 14:17:05;;;;;;;2.92;2.70;;;33.20;30.30;;;;;;20667;6713;336864;-89
2022/08/25 14:19:44;;;;;;;3.15;2.95;;;33.30;30.60;;;;;;20736;6732;306335;-89
2022/08/25 14:22:19;;;;;;;3.20;3.00;;;33.40;30.30;;;;;;20776;6713;305231;-89